Time;durP1;ratioP1;P1;durP2;ratioP2;P2;SDS_P1;SDS_P2;PMS_P1;PMS_P2;Temp;Humidity;BMP_temperature;BMP_pressure;BME280_temperature;BME280_humidity;BME280_pressure;Samples;Min_cycle;Max_cycle;Signal;HPM_P1;HPM_P2
2021/12/26 00:01:22;;;;;;;228.85;77.35;;;;;;;;;;5037480;28;20025;-68
2021/12/26 00:03:50;;;;;;;228.57;76.03;;;;;;;;;;5037468;28;20036;-68
2021/12/26 00:06:25;;;;;;;225.30;74.32;;;;;;;;;;5037459;28;20026;-68
2021/12/26 00:08:53;;;;;;;243.30;70.82;;;;;;;;;;5037438;28;20217;-69
2021/12/26 00:11:23;;;;;;;251.77;71.88;;;;;;;;;;5037179;28;20058;-69
2021/12/26 00:13:52;;;;;;;210.80;65.38;;;;;;;;;;5037242;28;20025;-68
2021/12/26 00:16:20;;;;;;;196.52;61.53;;;;;;;;;;5036221;28;20095;-68
2021/12/26 00:18:48;;;;;;;191.38;64.45;;;;;;;;;;5037271;28;20028;-68
2021/12/26 00:21:16;;;;;;;220.25;65.38;;;;;;;;;;5037319;28;20027;-69
2021/12/26 00:23:49;;;;;;;174.75;56.05;;;;;;;;;;5037033;28;20032;-69
2021/12/26 00:26:16;;;;;;;163.88;52.60;;;;;;;;;;5037013;28;20064;-68
2021/12/26 00:28:45;;;;;;;175.32;58.17;;;;;;;;;;5036930;28;20044;-68
2021/12/26 00:31:16;;;;;;;190.95;59.75;;;;;;;;;;5036997;28;20021;-68
2021/12/26 00:33:44;;;;;;;176.18;57.83;;;;;;;;;;5036980;28;20100;-69
2021/12/26 00:36:12;;;;;;;149.57;51.05;;;;;;;;;;5036921;28;20032;-68
2021/12/26 00:38:40;;;;;;;165.57;54.50;;;;;;;;;;5036856;28;20025;-69
2021/12/26 00:41:07;;;;;;;186.50;59.88;;;;;;;;;;5036732;28;20105;-68
2021/12/26 00:43:35;;;;;;;225.95;84.40;;;;;;;;;;5036631;28;20028;-69
2021/12/26 00:46:03;;;;;;;189.75;74.13;;;;;;;;;;5036514;28;20036;-69
2021/12/26 00:48:31;;;;;;;172.02;65.03;;;;;;;;;;5036588;28;20017;-69
2021/12/26 00:50:59;;;;;;;163.88;55.88;;;;;;;;;;5036566;28;20028;-69
2021/12/26 00:53:28;;;;;;;172.73;58.72;;;;;;;;;;5036628;28;20026;-69
2021/12/26 00:55:55;;;;;;;167.88;58.30;;;;;;;;;;5036568;28;20406;-69
2021/12/26 00:58:23;;;;;;;164.90;55.25;;;;;;;;;;5035244;28;20418;-69
2021/12/26 01:00:51;;;;;;;172.35;58.53;;;;;;;;;;5036318;28;20030;-69
2021/12/26 01:03:19;;;;;;;168.90;57.28;;;;;;;;;;5035568;28;20021;-69
2021/12/26 01:05:49;;;;;;;195.57;64.07;;;;;;;;;;5036154;28;20060;-69
2021/12/26 01:08:18;;;;;;;215.50;74.78;;;;;;;;;;5036053;28;20093;-69
2021/12/26 01:10:51;;;;;;;178.85;58.55;;;;;;;;;;5035956;28;20077;-69
2021/12/26 01:13:29;;;;;;;195.95;62.78;;;;;;;;;;5036012;28;20100;-70
2021/12/26 01:15:59;;;;;;;213.02;62.83;;;;;;;;;;5036007;28;20057;-70
2021/12/26 01:18:28;;;;;;;205.45;61.10;;;;;;;;;;5035877;28;20398;-69
2021/12/26 01:21:06;;;;;;;189.18;55.25;;;;;;;;;;5035617;28;20029;-69
2021/12/26 01:23:34;;;;;;;230.93;59.63;;;;;;;;;;5035491;28;20101;-69
2021/12/26 01:26:11;;;;;;;242.98;72.93;;;;;;;;;;5036935;28;20005;-70
2021/12/26 01:28:38;;;;;;;224.05;67.30;;;;;;;;;;5034776;28;20021;-70
2021/12/26 01:31:06;;;;;;;309.45;82.50;;;;;;;;;;5036063;28;20529;-69
2021/12/26 01:33:34;;;;;;;221.27;76.63;;;;;;;;;;5035903;28;20072;-70
2021/12/26 01:36:01;;;;;;;270.90;82.82;;;;;;;;;;5035958;28;20025;-69
2021/12/26 01:38:29;;;;;;;303.90;90.38;;;;;;;;;;5035923;28;20418;-69
2021/12/26 01:40:57;;;;;;;317.38;90.43;;;;;;;;;;5035730;28;20036;-68
2021/12/26 01:43:29;;;;;;;239.15;77.38;;;;;;;;;;5035792;28;20105;-68
2021/12/26 01:45:57;;;;;;;297.42;90.18;;;;;;;;;;5035708;28;20079;-68
2021/12/26 01:48:25;;;;;;;323.73;104.40;;;;;;;;;;5035829;28;20020;-68
2021/12/26 01:50:53;;;;;;;302.60;102.82;;;;;;;;;;5035871;28;20040;-70
2021/12/26 01:53:23;;;;;;;376.35;128.20;;;;;;;;;;5034762;28;20049;-69
2021/12/26 01:55:52;;;;;;;357.67;126.15;;;;;;;;;;5035759;28;20028;-69
2021/12/26 01:58:21;;;;;;;277.25;86.65;;;;;;;;;;5035607;28;20040;-70
2021/12/26 02:00:51;;;;;;;270.60;86.93;;;;;;;;;;5034702;28;20056;-68
2021/12/26 02:03:19;;;;;;;252.52;87.25;;;;;;;;;;5035910;28;20121;-69
2021/12/26 02:05:46;;;;;;;306.30;96.47;;;;;;;;;;5034543;28;20032;-70
2021/12/26 02:08:14;;;;;;;271.20;90.55;;;;;;;;;;5035665;28;20036;-70
2021/12/26 02:10:41;;;;;;;345.08;106.85;;;;;;;;;;5035480;28;20041;-68
2021/12/26 02:13:09;;;;;;;288.25;94.03;;;;;;;;;;5035857;28;20022;-68
2021/12/26 02:15:36;;;;;;;318.52;101.38;;;;;;;;;;5039491;28;20058;-69
2021/12/26 02:18:05;;;;;;;282.63;93.40;;;;;;;;;;5039282;28;20034;-69
2021/12/26 02:20:48;;;;;;;307.25;104.55;;;;;;;;;;5038075;28;20088;-69
2021/12/26 02:23:22;;;;;;;296.10;103.60;;;;;;;;;;5039301;28;20422;-71
2021/12/26 02:28:28;;;;;;;301.48;110.10;;;;;;;;;;5039230;28;20025;-71
2021/12/26 02:30:57;;;;;;;422.13;129.27;;;;;;;;;;5039242;28;20100;-68
2021/12/26 02:33:24;;;;;;;330.23;116.80;;;;;;;;;;5039547;28;20040;-70
2021/12/26 02:35:53;;;;;;;298.75;105.20;;;;;;;;;;5038494;28;20032;-68
2021/12/26 02:38:22;;;;;;;315.38;109.60;;;;;;;;;;5038504;28;20034;-67
2021/12/26 02:40:51;;;;;;;315.50;109.50;;;;;;;;;;5039993;28;20104;-70
2021/12/26 02:43:22;;;;;;;327.02;114.28;;;;;;;;;;5018052;28;20034;-68
2021/12/26 02:45:50;;;;;;;319.75;114.20;;;;;;;;;;5019073;28;20045;-71
2021/12/26 02:48:17;;;;;;;299.45;99.68;;;;;;;;;;5008991;28;20026;-72
2021/12/26 02:50:46;;;;;;;294.10;100.43;;;;;;;;;;5016740;28;20101;-70
2021/12/26 02:53:20;;;;;;;278.33;100.05;;;;;;;;;;5031974;28;20021;-69
2021/12/26 02:55:49;;;;;;;272.77;98.60;;;;;;;;;;5027951;28;20441;-68
2021/12/26 02:58:19;;;;;;;262.27;96.50;;;;;;;;;;5019795;28;20520;-69
2021/12/26 03:00:49;;;;;;;264.48;99.18;;;;;;;;;;5022186;28;20076;-67
2021/12/26 03:03:17;;;;;;;262.02;97.35;;;;;;;;;;5021300;28;20088;-67
2021/12/26 03:05:48;;;;;;;235.35;87.60;;;;;;;;;;5021037;28;20414;-68
2021/12/26 03:08:16;;;;;;;241.15;85.57;;;;;;;;;;5020744;28;20092;-68
2021/12/26 03:10:43;;;;;;;251.00;93.00;;;;;;;;;;5005118;28;20108;-69
2021/12/26 03:13:11;;;;;;;211.73;75.28;;;;;;;;;;5021675;28;20061;-69
2021/12/26 03:15:41;;;;;;;212.65;75.10;;;;;;;;;;5020900;28;20141;-69
2021/12/26 03:18:09;;;;;;;186.85;69.60;;;;;;;;;;5019850;28;20049;-68
2021/12/26 03:20:39;;;;;;;182.05;61.75;;;;;;;;;;5019710;28;20430;-67
2021/12/26 03:23:10;;;;;;;169.30;59.58;;;;;;;;;;5017627;28;20037;-68
2021/12/26 03:25:38;;;;;;;181.25;63.05;;;;;;;;;;5015996;28;20095;-69
2021/12/26 03:28:06;;;;;;;166.30;60.83;;;;;;;;;;5017131;28;20026;-70
2021/12/26 03:30:34;;;;;;;167.73;63.10;;;;;;;;;;5017088;28;20034;-71
2021/12/26 03:33:04;;;;;;;190.98;65.95;;;;;;;;;;5007466;28;20025;-68
2021/12/26 03:35:31;;;;;;;177.05;63.88;;;;;;;;;;5038005;28;20049;-69
2021/12/26 03:38:00;;;;;;;170.98;60.30;;;;;;;;;;5039640;28;20029;-70
2021/12/26 03:40:33;;;;;;;176.32;63.55;;;;;;;;;;5039730;28;20036;-71
2021/12/26 03:43:01;;;;;;;170.90;61.50;;;;;;;;;;5039017;28;20026;-69
2021/12/26 03:45:28;;;;;;;163.82;61.45;;;;;;;;;;5039247;28;20021;-68
2021/12/26 03:47:56;;;;;;;179.00;61.25;;;;;;;;;;5039354;28;20030;-72
2021/12/26 03:50:27;;;;;;;176.95;64.50;;;;;;;;;;5038035;28;20044;-69
2021/12/26 03:53:01;;;;;;;178.55;64.80;;;;;;;;;;5038861;28;20067;-72
2021/12/26 03:55:29;;;;;;;173.68;62.30;;;;;;;;;;5038550;28;20029;-69
2021/12/26 03:57:57;;;;;;;179.95;62.05;;;;;;;;;;5037825;28;20116;-71
2021/12/26 04:00:26;;;;;;;199.63;67.85;;;;;;;;;;5038906;28;20026;-69
2021/12/26 04:02:54;;;;;;;216.02;77.88;;;;;;;;;;5038969;28;20025;-68
2021/12/26 04:05:22;;;;;;;212.32;72.20;;;;;;;;;;5037610;28;20033;-72
2021/12/26 04:07:51;;;;;;;218.43;73.15;;;;;;;;;;5037757;28;20303;-70
2021/12/26 04:10:19;;;;;;;216.73;71.70;;;;;;;;;;5038307;28;20049;-69
2021/12/26 04:12:48;;;;;;;225.30;70.53;;;;;;;;;;5037559;28;20109;-70
2021/12/26 04:15:17;;;;;;;191.73;65.13;;;;;;;;;;5037384;28;20113;-70
2021/12/26 04:17:45;;;;;;;209.65;72.43;;;;;;;;;;5038055;28;20052;-70
2021/12/26 04:20:13;;;;;;;189.27;60.88;;;;;;;;;;5037050;28;20033;-72
2021/12/26 04:22:40;;;;;;;192.52;61.17;;;;;;;;;;5038636;28;20021;-70
2021/12/26 04:25:08;;;;;;;184.27;59.85;;;;;;;;;;5036781;28;20338;-69
2021/12/26 04:27:38;;;;;;;165.90;56.47;;;;;;;;;;5038811;28;20048;-69
2021/12/26 04:30:18;;;;;;;175.98;57.95;;;;;;;;;;5036720;28;20105;-72
2021/12/26 04:32:46;;;;;;;187.93;61.05;;;;;;;;;;5015670;28;20034;-70
2021/12/26 04:35:14;;;;;;;172.85;60.67;;;;;;;;;;5015611;28;20053;-69
2021/12/26 04:37:42;;;;;;;169.65;57.67;;;;;;;;;;4999066;28;20481;-69
2021/12/26 04:40:11;;;;;;;195.68;59.92;;;;;;;;;;4999095;28;20029;-70
2021/12/26 04:42:43;;;;;;;196.40;62.22;;;;;;;;;;4999364;28;20042;-70
2021/12/26 04:45:11;;;;;;;193.90;62.17;;;;;;;;;;4998968;28;20427;-71
2021/12/26 04:47:39;;;;;;;181.10;57.95;;;;;;;;;;4998781;28;20121;-72
2021/12/26 04:50:10;;;;;;;173.77;56.83;;;;;;;;;;4998974;28;20026;-70
2021/12/26 04:52:40;;;;;;;182.10;59.47;;;;;;;;;;5015802;28;20033;-68
2021/12/26 04:55:08;;;;;;;208.10;69.32;;;;;;;;;;5015810;28;20037;-70
2021/12/26 04:57:36;;;;;;;206.75;72.38;;;;;;;;;;5015241;28;20033;-68
2021/12/26 05:00:05;;;;;;;194.27;64.78;;;;;;;;;;4998631;28;20120;-69
2021/12/26 05:02:35;;;;;;;198.30;67.22;;;;;;;;;;5014808;28;20042;-68
2021/12/26 05:05:04;;;;;;;213.15;70.78;;;;;;;;;;5014770;28;20030;-68
2021/12/26 05:07:34;;;;;;;198.65;65.53;;;;;;;;;;5008900;28;20029;-68
2021/12/26 05:10:01;;;;;;;180.70;63.50;;;;;;;;;;5036354;28;20041;-68
2021/12/26 05:12:29;;;;;;;198.40;70.68;;;;;;;;;;5035568;28;20040;-68
2021/12/26 05:14:56;;;;;;;224.57;84.80;;;;;;;;;;5019151;28;20083;-68
2021/12/26 05:17:24;;;;;;;190.48;67.88;;;;;;;;;;5035524;28;20021;-68
2021/12/26 05:19:52;;;;;;;211.80;80.15;;;;;;;;;;5035246;28;20032;-68
2021/12/26 05:22:20;;;;;;;184.55;68.82;;;;;;;;;;5036187;28;20330;-69
2021/12/26 05:24:48;;;;;;;194.93;71.30;;;;;;;;;;5036048;28;20029;-68
2021/12/26 05:27:16;;;;;;;191.98;68.35;;;;;;;;;;5034999;28;20423;-69
2021/12/26 05:29:44;;;;;;;192.85;71.95;;;;;;;;;;5036127;28;20025;-67
2021/12/26 05:32:12;;;;;;;205.85;73.75;;;;;;;;;;5034916;28;20422;-68
2021/12/26 05:34:40;;;;;;;191.57;67.75;;;;;;;;;;5036012;28;20032;-69
2021/12/26 05:37:07;;;;;;;191.23;68.35;;;;;;;;;;5035007;28;20116;-69
2021/12/26 05:39:35;;;;;;;183.82;67.15;;;;;;;;;;5035908;28;20028;-67
2021/12/26 05:42:03;;;;;;;176.45;65.28;;;;;;;;;;5035842;28;20025;-68
2021/12/26 05:44:30;;;;;;;178.23;64.55;;;;;;;;;;5035936;28;20029;-67
2021/12/26 05:47:00;;;;;;;159.23;61.60;;;;;;;;;;5035653;28;20029;-67
2021/12/26 05:49:28;;;;;;;176.93;64.25;;;;;;;;;;5035185;28;20028;-68
2021/12/26 05:51:55;;;;;;;166.32;64.28;;;;;;;;;;5035512;28;20105;-67
2021/12/26 05:54:23;;;;;;;150.90;58.42;;;;;;;;;;5035748;28;20053;-69
2021/12/26 05:56:53;;;;;;;163.82;66.35;;;;;;;;;;5035775;28;20025;-68
2021/12/26 05:59:21;;;;;;;150.57;65.15;;;;;;;;;;5035763;28;20029;-69
2021/12/26 06:01:48;;;;;;;167.98;66.30;;;;;;;;;;5035871;28;20040;-69
2021/12/26 06:04:16;;;;;;;243.35;104.63;;;;;;;;;;5034646;28;20040;-69
2021/12/26 06:06:44;;;;;;;406.52;186.10;;;;;;;;;;5035832;28;20025;-68
2021/12/26 06:09:11;;;;;;;231.77;119.25;;;;;;;;;;5035909;28;20052;-69
2021/12/26 06:11:41;;;;;;;146.10;60.70;;;;;;;;;;5034394;28;20049;-68
2021/12/26 06:14:08;;;;;;;119.25;50.60;;;;;;;;;;5035921;28;20071;-67
2021/12/26 06:16:35;;;;;;;129.45;48.30;;;;;;;;;;5035574;28;20449;-67
2021/12/26 06:19:03;;;;;;;106.40;42.92;;;;;;;;;;5035452;28;20026;-68
2021/12/26 06:21:31;;;;;;;100.70;40.22;;;;;;;;;;5034311;28;20021;-68
2021/12/26 06:23:59;;;;;;;108.28;43.20;;;;;;;;;;5034422;28;20026;-68
2021/12/26 06:26:29;;;;;;;98.57;40.40;;;;;;;;;;5035329;28;20071;-68
2021/12/26 06:28:57;;;;;;;110.50;44.17;;;;;;;;;;5035541;28;20096;-68
2021/12/26 06:31:24;;;;;;;111.45;43.80;;;;;;;;;;5034472;28;20108;-68
2021/12/26 06:33:52;;;;;;;103.97;44.10;;;;;;;;;;5035441;28;20483;-68
2021/12/26 06:36:19;;;;;;;96.88;41.15;;;;;;;;;;5034284;28;20382;-68
2021/12/26 06:38:47;;;;;;;123.63;50.47;;;;;;;;;;5034106;28;20106;-68
2021/12/26 06:41:15;;;;;;;135.40;55.95;;;;;;;;;;5035504;28;20034;-67
2021/12/26 06:43:43;;;;;;;141.38;61.67;;;;;;;;;;5035401;28;20025;-68
2021/12/26 06:46:11;;;;;;;131.43;54.72;;;;;;;;;;5035776;28;20060;-69
2021/12/26 06:48:41;;;;;;;116.35;47.55;;;;;;;;;;5036522;28;20100;-69
2021/12/26 06:51:09;;;;;;;133.57;57.88;;;;;;;;;;5039302;28;20044;-69
2021/12/26 06:53:37;;;;;;;126.60;52.03;;;;;;;;;;5034300;28;20418;-67
2021/12/26 06:56:05;;;;;;;129.20;51.90;;;;;;;;;;5033536;28;20093;-68
2021/12/26 06:58:33;;;;;;;146.05;60.15;;;;;;;;;;5034832;28;20345;-68
2021/12/26 07:01:00;;;;;;;135.27;56.90;;;;;;;;;;5037098;28;20109;-68
2021/12/26 07:03:28;;;;;;;138.10;57.97;;;;;;;;;;5038711;28;20025;-68
2021/12/26 07:05:56;;;;;;;133.15;53.03;;;;;;;;;;5038576;28;20021;-67
2021/12/26 07:08:23;;;;;;;116.32;49.63;;;;;;;;;;5038661;28;20109;-68
2021/12/26 07:10:50;;;;;;;136.38;55.33;;;;;;;;;;5037704;28;20045;-67
2021/12/26 07:13:16;;;;;;;129.55;53.65;;;;;;;;;;5037858;28;20040;-67
2021/12/26 07:15:44;;;;;;;133.80;56.35;;;;;;;;;;5038760;28;20047;-67
2021/12/26 07:18:12;;;;;;;122.22;52.42;;;;;;;;;;5039486;28;20026;-67
2021/12/26 07:20:40;;;;;;;130.00;52.63;;;;;;;;;;5041540;28;20040;-68
2021/12/26 07:23:08;;;;;;;132.18;54.00;;;;;;;;;;5041639;28;20049;-69
2021/12/26 07:25:35;;;;;;;130.88;58.40;;;;;;;;;;5041731;28;20064;-69
2021/12/26 07:28:03;;;;;;;140.05;58.63;;;;;;;;;;5041906;28;20029;-67
2021/12/26 07:30:33;;;;;;;118.05;51.15;;;;;;;;;;5042606;28;20017;-68
2021/12/26 07:33:00;;;;;;;119.60;52.58;;;;;;;;;;5043369;28;20021;-67
2021/12/26 07:35:29;;;;;;;117.07;51.53;;;;;;;;;;5042542;28;20029;-68
2021/12/26 07:37:57;;;;;;;113.25;48.55;;;;;;;;;;5041029;28;20028;-68
2021/12/26 07:40:27;;;;;;;98.72;43.72;;;;;;;;;;5041668;28;20104;-68
2021/12/26 07:42:55;;;;;;;100.78;44.95;;;;;;;;;;5040066;28;20335;-68
2021/12/26 07:45:22;;;;;;;103.72;44.90;;;;;;;;;;5041241;28;20061;-69
2021/12/26 07:47:52;;;;;;;96.40;43.10;;;;;;;;;;5037955;28;20035;-70
2021/12/26 07:50:26;;;;;;;103.20;43.03;;;;;;;;;;5037999;28;20148;-68
2021/12/26 07:53:03;;;;;;;91.57;41.00;;;;;;;;;;5038101;28;20047;-68
2021/12/26 07:55:30;;;;;;;112.63;45.15;;;;;;;;;;5016472;28;20038;-69
2021/12/26 07:57:58;;;;;;;132.77;56.05;;;;;;;;;;5016203;28;20041;-69
2021/12/26 08:00:25;;;;;;;143.57;62.45;;;;;;;;;;5016630;28;20029;-69
2021/12/26 08:02:54;;;;;;;113.22;49.78;;;;;;;;;;5016417;28;20037;-67
2021/12/26 08:05:22;;;;;;;107.22;45.78;;;;;;;;;;5015871;28;20072;-67
2021/12/26 08:07:49;;;;;;;100.95;43.85;;;;;;;;;;5015921;28;20022;-67
2021/12/26 08:10:15;;;;;;;99.43;44.63;;;;;;;;;;4999834;28;20137;-68
2021/12/26 08:12:43;;;;;;;90.63;43.35;;;;;;;;;;5015461;28;20492;-68
2021/12/26 08:15:12;;;;;;;90.35;42.22;;;;;;;;;;5015890;28;20054;-68
2021/12/26 08:17:40;;;;;;;84.70;37.95;;;;;;;;;;4999303;28;20080;-68
2021/12/26 08:20:08;;;;;;;103.70;48.38;;;;;;;;;;5016103;28;20033;-69
2021/12/26 08:22:36;;;;;;;97.88;46.63;;;;;;;;;;4999116;28;20026;-67
2021/12/26 08:25:04;;;;;;;71.80;28.75;;;;;;;;;;5015390;28;20038;-68
2021/12/26 08:27:32;;;;;;;65.18;28.52;;;;;;;;;;4999746;28;20029;-67
2021/12/26 08:30:00;;;;;;;57.90;26.27;;;;;;;;;;4999144;28;20382;-68
2021/12/26 08:32:30;;;;;;;61.85;25.33;;;;;;;;;;5015114;28;20447;-68
2021/12/26 08:35:00;;;;;;;50.53;21.25;;;;;;;;;;5016286;28;20041;-68
2021/12/26 08:37:28;;;;;;;62.10;27.08;;;;;;;;;;5015481;28;20136;-68
2021/12/26 08:39:55;;;;;;;73.63;32.63;;;;;;;;;;5032287;28;20108;-67
2021/12/26 08:42:23;;;;;;;72.55;31.88;;;;;;;;;;5035509;28;20414;-68
2021/12/26 08:44:52;;;;;;;79.13;33.50;;;;;;;;;;5036774;28;20048;-68
2021/12/26 08:47:20;;;;;;;74.97;32.78;;;;;;;;;;5037569;28;20143;-68
2021/12/26 08:49:47;;;;;;;76.20;32.55;;;;;;;;;;5037412;28;20025;-69
2021/12/26 08:52:15;;;;;;;72.55;32.63;;;;;;;;;;5036984;28;20026;-68
2021/12/26 08:54:42;;;;;;;77.22;33.28;;;;;;;;;;5035753;28;20018;-69
2021/12/26 08:57:10;;;;;;;96.57;35.55;;;;;;;;;;5037686;28;20369;-68
2021/12/26 08:59:40;;;;;;;73.03;30.83;;;;;;;;;;5035724;28;20034;-68
2021/12/26 09:02:08;;;;;;;61.13;28.00;;;;;;;;;;5036757;28;20025;-69
2021/12/26 09:04:37;;;;;;;63.58;26.38;;;;;;;;;;5036502;28;20045;-68
2021/12/26 09:07:05;;;;;;;79.35;34.67;;;;;;;;;;5036475;28;20033;-69
2021/12/26 09:09:33;;;;;;;78.47;34.58;;;;;;;;;;5037083;28;20029;-69
2021/12/26 09:12:01;;;;;;;91.15;38.53;;;;;;;;;;5034972;28;20049;-69
2021/12/26 09:14:29;;;;;;;77.85;32.55;;;;;;;;;;5036689;28;20075;-69
2021/12/26 09:16:58;;;;;;;80.90;38.70;;;;;;;;;;5036200;28;20017;-69
2021/12/26 09:19:27;;;;;;;97.05;43.55;;;;;;;;;;5036106;28;20036;-69
2021/12/26 09:21:56;;;;;;;71.60;32.95;;;;;;;;;;5036064;28;20448;-68
2021/12/26 09:24:23;;;;;;;85.20;39.85;;;;;;;;;;5035360;28;20025;-68
2021/12/26 09:26:50;;;;;;;88.80;43.30;;;;;;;;;;5035328;28;20025;-68
2021/12/26 09:29:18;;;;;;;90.45;42.22;;;;;;;;;;5037114;28;20055;-69
2021/12/26 09:31:56;;;;;;;88.60;41.10;;;;;;;;;;5052549;28;20401;-71
2021/12/26 09:34:25;;;;;;;98.13;45.47;;;;;;;;;;5035509;28;20040;-69
2021/12/26 09:36:53;;;;;;;97.53;43.13;;;;;;;;;;5033715;28;20148;-69
2021/12/26 09:39:22;;;;;;;96.25;43.95;;;;;;;;;;5034973;28;20113;-68
2021/12/26 09:41:51;;;;;;;101.53;45.22;;;;;;;;;;5033571;28;20449;-69
2021/12/26 09:44:19;;;;;;;111.38;50.40;;;;;;;;;;5035024;28;20096;-69
2021/12/26 09:46:47;;;;;;;117.88;51.53;;;;;;;;;;5033859;28;20036;-69
2021/12/26 09:49:15;;;;;;;141.30;62.28;;;;;;;;;;5035606;28;20033;-70
2021/12/26 09:51:52;;;;;;;135.38;60.20;;;;;;;;;;5034891;28;20105;-69
2021/12/26 09:54:22;;;;;;;109.85;49.45;;;;;;;;;;5034315;28;20440;-69
2021/12/26 09:56:50;;;;;;;107.50;49.13;;;;;;;;;;5034061;28;20124;-69
2021/12/26 09:59:19;;;;;;;98.20;46.17;;;;;;;;;;5034229;28;20239;-69
2021/12/26 10:01:48;;;;;;;162.35;68.22;;;;;;;;;;5035342;28;20053;-69
2021/12/26 10:04:21;;;;;;;171.57;77.75;;;;;;;;;;5035185;28;20037;-70
2021/12/26 10:06:50;;;;;;;170.43;75.05;;;;;;;;;;5035526;28;20037;-67
2021/12/26 10:09:18;;;;;;;212.10;89.30;;;;;;;;;;5035323;28;20083;-69
2021/12/26 10:11:46;;;;;;;208.70;90.38;;;;;;;;;;5034875;28;20041;-69
2021/12/26 10:14:14;;;;;;;266.05;119.95;;;;;;;;;;5035086;28;20437;-69
2021/12/26 10:16:47;;;;;;;251.65;111.65;;;;;;;;;;5035213;28;20032;-69
2021/12/26 10:19:14;;;;;;;241.98;102.68;;;;;;;;;;5035359;28;20060;-69
2021/12/26 10:21:51;;;;;;;198.65;81.72;;;;;;;;;;5035556;28;20025;-69
2021/12/26 10:24:25;;;;;;;236.05;94.38;;;;;;;;;;5035697;28;20031;-69
2021/12/26 10:27:06;;;;;;;253.07;101.15;;;;;;;;;;5035149;28;20034;-69
2021/12/26 10:29:38;;;;;;;222.30;94.80;;;;;;;;;;5035308;28;20056;-68
2021/12/26 10:32:21;;;;;;;233.82;91.10;;;;;;;;;;5034093;28;20030;-68
2021/12/26 10:34:51;;;;;;;229.63;92.13;;;;;;;;;;5035558;28;20033;-69
2021/12/26 10:37:23;;;;;;;256.52;108.97;;;;;;;;;;5038201;28;20025;-69
2021/12/26 10:39:55;;;;;;;239.80;106.05;;;;;;;;;;5039243;28;20361;-69
2021/12/26 10:42:24;;;;;;;277.70;126.45;;;;;;;;;;5041744;28;20021;-69
2021/12/26 10:44:57;;;;;;;227.65;102.50;;;;;;;;;;5037905;28;20333;-68
2021/12/26 10:47:26;;;;;;;277.75;126.30;;;;;;;;;;5039160;28;20028;-68
2021/12/26 10:50:11;;;;;;;299.77;143.80;;;;;;;;;;5039138;28;20028;-69
2021/12/26 10:52:41;;;;;;;368.95;185.63;;;;;;;;;;5039143;28;20120;-68
2021/12/26 10:55:16;;;;;;;206.48;95.13;;;;;;;;;;5038861;28;20075;-68
2021/12/26 10:57:48;;;;;;;193.73;89.38;;;;;;;;;;5038746;28;20031;-68
2021/12/26 11:00:20;;;;;;;186.02;89.10;;;;;;;;;;5038046;28;20025;-68
2021/12/26 11:03:08;;;;;;;217.73;104.82;;;;;;;;;;5037152;28;20079;-69
2021/12/26 11:05:45;;;;;;;192.02;88.05;;;;;;;;;;4961656;28;20038;-69
2021/12/26 11:08:21;;;;;;;209.00;103.88;;;;;;;;;;4978040;28;20114;-69
2021/12/26 11:10:49;;;;;;;176.55;79.78;;;;;;;;;;4958412;29;20074;-68
2021/12/26 11:13:20;;;;;;;187.73;85.00;;;;;;;;;;4958708;29;20065;-68
2021/12/26 11:15:47;;;;;;;188.63;85.18;;;;;;;;;;4942487;29;20063;-68
2021/12/26 11:18:16;;;;;;;207.27;96.85;;;;;;;;;;4942498;29;20050;-68
2021/12/26 11:20:50;;;;;;;268.85;118.40;;;;;;;;;;4942327;29;20039;-69
2021/12/26 11:23:25;;;;;;;250.93;112.80;;;;;;;;;;4942371;29;20042;-69
2021/12/26 11:26:00;;;;;;;265.50;121.20;;;;;;;;;;4958173;29;20050;-69
2021/12/26 11:28:30;;;;;;;266.95;123.45;;;;;;;;;;4958072;29;20023;-69
2021/12/26 11:30:59;;;;;;;355.17;158.90;;;;;;;;;;4941719;29;20062;-69
2021/12/26 11:33:28;;;;;;;355.58;150.75;;;;;;;;;;4958052;29;20159;-69
2021/12/26 11:35:56;;;;;;;297.08;134.05;;;;;;;;;;4942148;29;20035;-70
2021/12/26 11:38:25;;;;;;;257.08;119.15;;;;;;;;;;4942126;29;20031;-69
2021/12/26 11:40:55;;;;;;;297.02;137.40;;;;;;;;;;4941992;29;20034;-69
2021/12/26 11:43:42;;;;;;;323.75;150.60;;;;;;;;;;5005904;28;20354;-69
2021/12/26 11:46:17;;;;;;;303.08;149.73;;;;;;;;;;5017155;28;20108;-68
2021/12/26 11:49:07;;;;;;;367.10;172.75;;;;;;;;;;5018223;28;20026;-68
2021/12/26 11:51:53;;;;;;;291.05;134.02;;;;;;;;;;5018067;28;20101;-68
2021/12/26 11:54:38;;;;;;;265.83;120.00;;;;;;;;;;5016993;28;20021;-69
2021/12/26 11:57:23;;;;;;;288.70;133.57;;;;;;;;;;5018143;28;20439;-68
2021/12/26 12:00:09;;;;;;;304.13;139.48;;;;;;;;;;5016903;28;20034;-68
2021/12/26 12:02:49;;;;;;;327.40;153.60;;;;;;;;;;5018012;28;20111;-69
2021/12/26 12:05:24;;;;;;;320.52;154.45;;;;;;;;;;5016731;28;20025;-69
2021/12/26 12:08:01;;;;;;;367.20;174.93;;;;;;;;;;5016896;28;20479;-68
2021/12/26 12:10:33;;;;;;;350.00;167.23;;;;;;;;;;5017658;28;20076;-69
2021/12/26 12:13:00;;;;;;;313.02;146.95;;;;;;;;;;5017866;28;20140;-69
2021/12/26 12:15:46;;;;;;;316.10;144.10;;;;;;;;;;5017736;28;20030;-69
2021/12/26 12:18:27;;;;;;;317.60;149.00;;;;;;;;;;5017730;28;20030;-69
2021/12/26 12:21:12;;;;;;;310.85;142.23;;;;;;;;;;5016496;28;20060;-68
2021/12/26 12:24:00;;;;;;;313.20;148.18;;;;;;;;;;5017536;28;20064;-68
2021/12/26 12:26:45;;;;;;;310.08;143.25;;;;;;;;;;4957192;29;20035;-68
2021/12/26 12:29:33;;;;;;;279.17;135.18;;;;;;;;;;4941169;29;20063;-69
2021/12/26 12:32:12;;;;;;;302.92;139.23;;;;;;;;;;4918640;29;20048;-69
2021/12/26 12:34:51;;;;;;;284.58;135.65;;;;;;;;;;4918959;29;20036;-69
2021/12/26 12:37:32;;;;;;;268.80;126.95;;;;;;;;;;4918796;29;20123;-69
2021/12/26 12:40:16;;;;;;;280.33;128.70;;;;;;;;;;4918375;29;20025;-68
2021/12/26 12:43:00;;;;;;;282.23;130.65;;;;;;;;;;4921243;29;20062;-69
2021/12/26 12:45:28;;;;;;;266.65;125.10;;;;;;;;;;4918630;29;20043;-68
2021/12/26 12:48:28;;;;;;;291.25;129.68;;;;;;;;;;4918725;29;20067;-69
2021/12/26 12:50:58;;;;;;;293.77;127.80;;;;;;;;;;4880978;29;20057;-69
2021/12/26 12:53:42;;;;;;;319.40;145.00;;;;;;;;;;4881072;29;20051;-69
2021/12/26 12:56:30;;;;;;;319.15;143.05;;;;;;;;;;4880773;29;20456;-69
2021/12/26 12:59:16;;;;;;;312.05;141.80;;;;;;;;;;4880694;29;20473;-69
2021/12/26 13:01:46;;;;;;;329.15;150.15;;;;;;;;;;4865060;29;20060;-69
2021/12/26 13:04:14;;;;;;;365.23;172.27;;;;;;;;;;4893924;29;20047;-69
2021/12/26 13:06:52;;;;;;;395.70;184.80;;;;;;;;;;4918070;29;20036;-69
2021/12/26 13:09:20;;;;;;;427.33;201.85;;;;;;;;;;4926781;29;20065;-68
2021/12/26 13:11:48;;;;;;;502.10;238.93;;;;;;;;;;4936919;29;20249;-68
2021/12/26 13:14:33;;;;;;;556.75;273.70;;;;;;;;;;4937342;29;20040;-69
2021/12/26 13:17:01;;;;;;;639.35;319.83;;;;;;;;;;4937137;29;20036;-68
2021/12/26 13:19:31;;;;;;;655.08;324.33;;;;;;;;;;4937099;29;20043;-68
2021/12/26 13:21:59;;;;;;;645.88;324.73;;;;;;;;;;4937053;29;20164;-68
2021/12/26 13:24:30;;;;;;;644.35;324.15;;;;;;;;;;4937041;29;20032;-68
2021/12/26 13:27:01;;;;;;;616.47;306.55;;;;;;;;;;4982399;28;20443;-68
2021/12/26 13:29:29;;;;;;;603.25;300.65;;;;;;;;;;5016246;28;20060;-67
2021/12/26 13:31:57;;;;;;;458.77;213.80;;;;;;;;;;5015045;28;20021;-67
2021/12/26 13:34:25;;;;;;;472.13;228.85;;;;;;;;;;5016203;28;20106;-68
2021/12/26 13:36:53;;;;;;;491.38;233.43;;;;;;;;;;5016263;28;20026;-68
2021/12/26 13:39:25;;;;;;;474.88;221.95;;;;;;;;;;5016275;28;20057;-68
2021/12/26 13:41:53;;;;;;;461.83;222.07;;;;;;;;;;5016185;28;20106;-68
2021/12/26 13:44:21;;;;;;;441.45;215.35;;;;;;;;;;5016387;28;20343;-68
2021/12/26 13:47:00;;;;;;;434.25;205.18;;;;;;;;;;5016182;28;20097;-68
2021/12/26 13:49:28;;;;;;;445.00;209.35;;;;;;;;;;5016236;28;20029;-68
2021/12/26 13:51:55;;;;;;;428.85;205.88;;;;;;;;;;5015162;28;20468;-68
2021/12/26 13:54:37;;;;;;;421.48;200.57;;;;;;;;;;5015113;28;20029;-68
2021/12/26 13:57:06;;;;;;;424.73;200.98;;;;;;;;;;5016095;28;20097;-69
2021/12/26 13:59:37;;;;;;;426.58;201.13;;;;;;;;;;5014929;28;20323;-69
2021/12/26 14:02:08;;;;;;;405.90;186.93;;;;;;;;;;5016104;28;20489;-68
2021/12/26 14:04:53;;;;;;;470.50;226.18;;;;;;;;;;5014990;28;20034;-68
2021/12/26 14:07:25;;;;;;;524.92;260.02;;;;;;;;;;5016047;28;20026;-69
2021/12/26 14:09:55;;;;;;;574.13;306.80;;;;;;;;;;5016263;28;20053;-70
2021/12/26 14:12:27;;;;;;;565.05;297.58;;;;;;;;;;5020043;28;20300;-69
2021/12/26 14:14:58;;;;;;;565.08;293.55;;;;;;;;;;5019189;28;20414;-69
2021/12/26 14:17:25;;;;;;;537.08;273.77;;;;;;;;;;5018969;28;20307;-68
2021/12/26 14:19:58;;;;;;;482.02;235.02;;;;;;;;;;5019888;28;20131;-69
2021/12/26 14:22:29;;;;;;;440.75;203.55;;;;;;;;;;5019962;28;20493;-68